Terminal Aerodrome Forecast
Issued by NWS

Home | Current Version | Previous Version | Text Only | Print | Product List | Glossary On
Versions: 1 2 3 4 5 6 7 8 9 10 11 12 13 14 15
000
FTUS43 KICT 231734
TAFCNU
TAF
KCNU 231734Z 2318/2418 17012KT P6SM SKC
     FM232000 18015G22KT P6SM SCT050
     FM240100 14008KT P6SM FEW250
     FM241400 17008KT P6SM FEW040=

USA.gov is the U.S. government's official web portal to all federal, state and local government web resources and services.